SAS98W ENGM-LEPA
Flight info
| Callsign | SAS98W |
|---|---|
| Flight time | N/A |
| Altitude | 38000 |
| Route | VIPPA DCT BINRO DCT LUTIR DCT IBESA/N0447F370 DCT LIMGO DCT SUTAL DCT GTQ DCT POGOL DCT LASAT DCT MOROK DCT GILIR DCT GEVEA DCT INCUS DCT BALSI DCT RETNO DCT TUPOX DCT MTG DCT DIVKO DCT VATIR DCT PIVUS DCT BODEQ DCT VERSO L129 LUNIK |
| Aircraft | A20N/M-SDE2E3FGHIRWXY/LB1 |
Departure
| Time | 2026-05-01 13:33 |
|---|---|
| Airport | Oslo-Gardermoen International Airport (ENGM) |
Arrival
| Time | N/A |
|---|---|
| Airport | Palma de Mallorca Airport (LEPA) |
| Time | Latitude | Longitude | Altitude | Speed | Heading |
|---|---|---|---|---|---|
| 2026-05-01 13:10 | 60.19838 | 11.10417 | 688 ft | 0 kts | 195° |
| 2026-05-01 13:24 | 60.19843 | 11.10419 | 688 ft | 2 kts | 196° |
| 2026-05-01 13:24 | 60.19857 | 11.10428 | 688 ft | 2 kts | 196° |
| 2026-05-01 13:24 | 60.19871 | 11.10436 | 688 ft | 2 kts | 196° |
| 2026-05-01 13:25 | 60.19897 | 11.10442 | 688 ft | 2 kts | 158° |
| 2026-05-01 13:25 | 60.19910 | 11.10424 | 688 ft | 2 kts | 129° |
| 2026-05-01 13:25 | 60.19917 | 11.10398 | 688 ft | 2 kts | 101° |
| 2026-05-01 13:25 | 60.19919 | 11.10375 | 688 ft | 0 kts | 106° |
| 2026-05-01 13:26 | 60.19920 | 11.10372 | 688 ft | 0 kts | 107° |
| 2026-05-01 13:28 | 60.19905 | 11.10476 | 688 ft | 8 kts | 106° |
| 2026-05-01 13:28 | 60.19883 | 11.10623 | 688 ft | 12 kts | 105° |
| 2026-05-01 13:29 | 60.19826 | 11.11012 | 688 ft | 15 kts | 104° |
| 2026-05-01 13:29 | 60.19756 | 11.11430 | 688 ft | 15 kts | 118° |
| 2026-05-01 13:30 | 60.19864 | 11.11708 | 689 ft | 8 kts | 16° |
| 2026-05-01 13:31 | 60.19993 | 11.11782 | 689 ft | 10 kts | 15° |
| 2026-05-01 13:31 | 60.20044 | 11.12054 | 689 ft | 8 kts | 105° |
| 2026-05-01 13:32 | 60.20009 | 11.12182 | 689 ft | 4 kts | 180° |
| 2026-05-01 13:33 | 60.18862 | 11.11523 | 688 ft | 140 kts | 196° |
| 2026-05-01 13:33 | 60.16686 | 11.10227 | 1397 ft | 173 kts | 201° |
| 2026-05-01 13:34 | 60.14367 | 11.08906 | 2544 ft | 188 kts | 198° |
| 2026-05-01 13:34 | 60.11486 | 11.07802 | 3261 ft | 234 kts | 189° |
| 2026-05-01 13:35 | 60.08065 | 11.07116 | 4488 ft | 258 kts | 189° |
| 2026-05-01 13:35 | 60.06300 | 11.06626 | 5322 ft | 258 kts | 195° |
| 2026-05-01 13:35 | 60.02892 | 11.04547 | 6920 ft | 261 kts | 204° |
| 2026-05-01 13:36 | 60.01178 | 11.03308 | 7733 ft | 264 kts | 205° |
| 2026-05-01 13:36 | 59.99466 | 11.02064 | 8535 ft | 265 kts | 205° |
| 2026-05-01 13:36 | 59.96011 | 10.99564 | 10104 ft | 268 kts | 206° |
| 2026-05-01 13:37 | 59.94270 | 10.98298 | 10758 ft | 274 kts | 206° |
| 2026-05-01 13:37 | 59.92422 | 10.96946 | 11101 ft | 291 kts | 206° |
| 2026-05-01 13:37 | 59.90472 | 10.95529 | 11419 ft | 309 kts | 205° |
| 2026-05-01 13:37 | 59.88396 | 10.94024 | 11726 ft | 325 kts | 205° |
| 2026-05-01 13:38 | 59.84055 | 10.90915 | 12965 ft | 335 kts | 205° |
| 2026-05-01 13:38 | 59.81895 | 10.89351 | 13679 ft | 336 kts | 206° |
| 2026-05-01 13:38 | 59.79725 | 10.87669 | 14355 ft | 338 kts | 207° |
| 2026-05-01 13:39 | 59.77533 | 10.85944 | 14949 ft | 342 kts | 207° |
| 2026-05-01 13:39 | 59.75317 | 10.84204 | 15518 ft | 346 kts | 207° |
| 2026-05-01 13:39 | 59.73081 | 10.82459 | 16106 ft | 349 kts | 207° |
| 2026-05-01 13:39 | 59.70827 | 10.80704 | 16757 ft | 352 kts | 207° |
| 2026-05-01 13:40 | 59.68541 | 10.78932 | 17297 ft | 356 kts | 207° |
| 2026-05-01 13:40 | 59.66229 | 10.77144 | 17850 ft | 360 kts | 207° |
| 2026-05-01 13:40 | 59.63902 | 10.75345 | 18413 ft | 363 kts | 207° |
| 2026-05-01 13:40 | 59.61528 | 10.73517 | 18936 ft | 367 kts | 207° |
| 2026-05-01 13:41 | 59.59160 | 10.71697 | 19468 ft | 370 kts | 207° |
| 2026-05-01 13:41 | 59.56757 | 10.69848 | 19987 ft | 374 kts | 206° |
| 2026-05-01 13:41 | 59.54338 | 10.67993 | 20486 ft | 378 kts | 206° |
| 2026-05-01 13:41 | 59.51897 | 10.66123 | 20981 ft | 381 kts | 206° |
| 2026-05-01 13:42 | 59.49426 | 10.64234 | 21485 ft | 384 kts | 206° |
| 2026-05-01 13:42 | 59.46937 | 10.62332 | 21952 ft | 387 kts | 206° |
| 2026-05-01 13:42 | 59.44426 | 10.60422 | 22400 ft | 390 kts | 206° |
| 2026-05-01 13:42 | 59.41894 | 10.58498 | 22843 ft | 393 kts | 206° |
| 2026-05-01 13:43 | 59.39319 | 10.56543 | 23294 ft | 396 kts | 206° |
| 2026-05-01 13:43 | 59.36752 | 10.54596 | 23710 ft | 400 kts | 206° |
| 2026-05-01 13:43 | 59.34160 | 10.52636 | 24136 ft | 402 kts | 206° |
| 2026-05-01 13:43 | 59.31559 | 10.50671 | 24545 ft | 405 kts | 206° |
| 2026-05-01 13:44 | 59.28938 | 10.48696 | 24939 ft | 408 kts | 205° |
| 2026-05-01 13:44 | 59.26306 | 10.46716 | 25336 ft | 410 kts | 206° |
| 2026-05-01 13:44 | 59.23649 | 10.44718 | 25705 ft | 413 kts | 205° |
| 2026-05-01 13:44 | 59.20966 | 10.42705 | 26059 ft | 415 kts | 205° |
| 2026-05-01 13:45 | 59.18247 | 10.40669 | 26394 ft | 418 kts | 205° |
| 2026-05-01 13:45 | 59.15542 | 10.38647 | 26719 ft | 421 kts | 205° |
| 2026-05-01 13:45 | 59.12808 | 10.36606 | 27067 ft | 422 kts | 205° |
| 2026-05-01 13:45 | 59.10093 | 10.34586 | 27383 ft | 424 kts | 204° |
| 2026-05-01 13:46 | 59.07290 | 10.32501 | 27705 ft | 427 kts | 204° |
| 2026-05-01 13:46 | 59.04538 | 10.30457 | 27988 ft | 429 kts | 204° |
| 2026-05-01 13:46 | 59.01759 | 10.28398 | 28265 ft | 432 kts | 204° |
| 2026-05-01 13:46 | 58.98953 | 10.26325 | 28550 ft | 434 kts | 204° |
| 2026-05-01 13:47 | 58.96138 | 10.24246 | 28822 ft | 436 kts | 204° |
| 2026-05-01 13:47 | 58.93282 | 10.22317 | 29092 ft | 439 kts | 201° |
| 2026-05-01 13:47 | 58.90367 | 10.20632 | 29344 ft | 441 kts | 199° |
| 2026-05-01 13:47 | 58.87433 | 10.18944 | 29635 ft | 441 kts | 200° |
| 2026-05-01 13:48 | 58.84481 | 10.17232 | 29981 ft | 441 kts | 200° |
| 2026-05-01 13:48 | 58.81587 | 10.15557 | 30332 ft | 440 kts | 200° |
| 2026-05-01 13:48 | 58.78653 | 10.13864 | 30695 ft | 438 kts | 199° |
| 2026-05-01 13:48 | 58.75729 | 10.12185 | 31029 ft | 438 kts | 199° |
| 2026-05-01 13:49 | 58.72842 | 10.10531 | 31333 ft | 438 kts | 199° |
| 2026-05-01 13:49 | 58.69955 | 10.08880 | 31637 ft | 437 kts | 199° |
| 2026-05-01 13:49 | 58.67037 | 10.07216 | 31945 ft | 436 kts | 199° |
| 2026-05-01 13:49 | 58.64164 | 10.05582 | 32237 ft | 436 kts | 199° |
| 2026-05-01 13:50 | 58.61258 | 10.03929 | 32535 ft | 435 kts | 199° |
| 2026-05-01 13:50 | 58.58378 | 10.02296 | 32800 ft | 435 kts | 199° |
| 2026-05-01 13:50 | 58.55480 | 10.00653 | 33051 ft | 435 kts | 199° |
| 2026-05-01 13:50 | 58.52610 | 9.99030 | 33284 ft | 435 kts | 199° |
| 2026-05-01 13:51 | 58.49710 | 9.97396 | 33532 ft | 434 kts | 199° |
| 2026-05-01 13:51 | 58.46813 | 9.95763 | 33782 ft | 433 kts | 199° |
| 2026-05-01 13:51 | 58.43964 | 9.94160 | 33999 ft | 433 kts | 199° |
| 2026-05-01 13:51 | 58.41059 | 9.92529 | 34215 ft | 433 kts | 199° |
| 2026-05-01 13:52 | 58.38202 | 9.90928 | 34421 ft | 433 kts | 199° |
| 2026-05-01 13:52 | 58.35338 | 9.89326 | 34589 ft | 433 kts | 199° |
| 2026-05-01 13:52 | 58.32436 | 9.87704 | 34732 ft | 434 kts | 199° |
| 2026-05-01 13:52 | 58.29530 | 9.86084 | 34870 ft | 435 kts | 199° |
| 2026-05-01 13:53 | 58.26660 | 9.84487 | 35010 ft | 436 kts | 199° |
| 2026-05-01 13:53 | 58.20847 | 9.81262 | 35259 ft | 437 kts | 199° |
| 2026-05-01 13:53 | 58.17948 | 9.79658 | 35365 ft | 438 kts | 199° |
| 2026-05-01 13:54 | 58.15010 | 9.78110 | 35469 ft | 439 kts | 197° |
| 2026-05-01 13:54 | 58.12050 | 9.76714 | 35575 ft | 439 kts | 197° |
| 2026-05-01 13:54 | 58.09096 | 9.75291 | 35679 ft | 440 kts | 197° |
| 2026-05-01 13:54 | 58.06142 | 9.73863 | 35780 ft | 440 kts | 197° |
| 2026-05-01 13:55 | 58.00235 | 9.71025 | 35962 ft | 441 kts | 197° |
| 2026-05-01 13:55 | 57.94305 | 9.68189 | 36129 ft | 442 kts | 197° |
| 2026-05-01 13:56 | 57.88353 | 9.65361 | 36286 ft | 443 kts | 197° |
| 2026-05-01 13:56 | 57.82396 | 9.62540 | 36290 ft | 444 kts | 197° |
| 2026-05-01 13:57 | 57.76401 | 9.59714 | 36293 ft | 444 kts | 197° |
| 2026-05-01 13:57 | 57.70443 | 9.56912 | 36290 ft | 444 kts | 197° |
| 2026-05-01 13:58 | 57.64463 | 9.54111 | 36294 ft | 444 kts | 197° |
| 2026-05-01 13:58 | 57.58496 | 9.51326 | 36293 ft | 444 kts | 197° |
| 2026-05-01 13:59 | 57.52525 | 9.48546 | 36294 ft | 445 kts | 196° |
| 2026-05-01 13:59 | 57.46553 | 9.45778 | 36297 ft | 445 kts | 196° |
| 2026-05-01 14:00 | 57.40544 | 9.43001 | 36299 ft | 445 kts | 196° |
| 2026-05-01 14:00 | 57.34568 | 9.40248 | 36294 ft | 446 kts | 196° |
| 2026-05-01 14:01 | 57.28579 | 9.37499 | 36300 ft | 446 kts | 196° |
| 2026-05-01 14:01 | 57.22570 | 9.34751 | 36302 ft | 445 kts | 195° |
| 2026-05-01 14:02 | 57.16577 | 9.32018 | 36301 ft | 445 kts | 195° |
| 2026-05-01 14:02 | 57.10595 | 9.29298 | 36303 ft | 445 kts | 195° |
| 2026-05-01 14:03 | 57.04601 | 9.26584 | 36305 ft | 446 kts | 195° |
| 2026-05-01 14:03 | 56.98586 | 9.23869 | 36309 ft | 446 kts | 195° |
| 2026-05-01 14:04 | 56.92598 | 9.21175 | 36312 ft | 446 kts | 195° |
| 2026-05-01 14:04 | 56.86615 | 9.18492 | 36314 ft | 446 kts | 195° |
| 2026-05-01 14:05 | 56.80580 | 9.15795 | 36317 ft | 446 kts | 195° |
| 2026-05-01 14:05 | 56.74603 | 9.13132 | 36318 ft | 446 kts | 195° |
| 2026-05-01 14:06 | 56.68608 | 9.10470 | 36319 ft | 446 kts | 195° |
| 2026-05-01 14:06 | 56.62604 | 9.07813 | 36321 ft | 446 kts | 194° |
| 2026-05-01 14:07 | 56.56605 | 9.05167 | 36322 ft | 446 kts | 194° |
| 2026-05-01 14:08 | 56.47570 | 9.01197 | 36326 ft | 446 kts | 194° |
| 2026-05-01 14:08 | 56.41587 | 8.98579 | 36331 ft | 446 kts | 194° |
| 2026-05-01 14:09 | 56.35584 | 8.95961 | 36334 ft | 446 kts | 194° |
| 2026-05-01 14:09 | 56.29572 | 8.93348 | 36335 ft | 446 kts | 194° |
| 2026-05-01 14:10 | 56.23570 | 8.90747 | 36336 ft | 446 kts | 194° |
| 2026-05-01 14:10 | 56.17535 | 8.88141 | 36336 ft | 446 kts | 194° |
| 2026-05-01 14:11 | 56.11525 | 8.85552 | 36334 ft | 446 kts | 194° |
| 2026-05-01 14:11 | 56.02512 | 8.81689 | 36333 ft | 446 kts | 194° |
| 2026-05-01 14:12 | 55.96503 | 8.79122 | 36331 ft | 446 kts | 194° |
| 2026-05-01 14:12 | 55.90465 | 8.76551 | 36330 ft | 446 kts | 194° |
| 2026-05-01 14:13 | 55.85450 | 8.74423 | 36332 ft | 446 kts | 194° |
| 2026-05-01 14:13 | 55.78411 | 8.71445 | 36331 ft | 446 kts | 194° |
| 2026-05-01 14:14 | 55.72407 | 8.68912 | 36334 ft | 446 kts | 194° |
| 2026-05-01 14:14 | 55.66379 | 8.66379 | 36335 ft | 446 kts | 194° |
| 2026-05-01 14:15 | 55.60377 | 8.63863 | 36339 ft | 446 kts | 194° |
| 2026-05-01 14:15 | 55.54348 | 8.61347 | 36345 ft | 446 kts | 194° |
| 2026-05-01 14:16 | 55.48336 | 8.58841 | 36347 ft | 446 kts | 194° |
| 2026-05-01 14:16 | 55.42274 | 8.56325 | 36344 ft | 447 kts | 193° |
| 2026-05-01 14:17 | 55.36240 | 8.53830 | 36340 ft | 447 kts | 193° |
| 2026-05-01 14:17 | 55.30219 | 8.51348 | 36336 ft | 448 kts | 193° |
| 2026-05-01 14:18 | 55.24174 | 8.48864 | 36336 ft | 448 kts | 193° |
| 2026-05-01 14:18 | 55.19118 | 8.46792 | 36333 ft | 448 kts | 193° |